Terminal Aerodrome Forecast
Issued by NWS

Home | Current Version | Previous Version | Text Only | Print | Product List | Glossary On
Versions: 1 2 3 4 5 6 7 8 9 10 11 12 13 14 15 16 17 18
000
FTUS46 KMFR 300520
TAFRBG
TAF
KRBG 300520Z 3006/3106 35005KT P6SM SKC
     FM301200 VRB03KT 3SM HZ SKC
     FM301600 VRB03KT P6SM SKC
     FM302200 35007KT P6SM SKC=

USA.gov is the U.S. government's official web portal to all federal, state and local government web resources and services.